Time;durP1;ratioP1;P1;durP2;ratioP2;P2;SDS_P1;SDS_P2;PMS_P1;PMS_P2;Temp;Humidity;BMP_temperature;BMP_pressure;BME280_temperature;BME280_humidity;BME280_pressure;Samples;Min_cycle;Max_cycle;Signal;HPM_P1;HPM_P2
2023/03/05 00:01:53;;;;;;;14.50;6.55;;;;;;;1.63;90.10;97545.56;5069737;28;20044;-60
2023/03/05 00:04:20;;;;;;;15.93;5.88;;;;;;;1.73;90.10;97548.72;5071119;28;20052;-59
2023/03/05 00:06:46;;;;;;;15.68;6.80;;;;;;;1.73;89.80;97545.25;5074125;28;20113;-60
2023/03/05 00:09:13;;;;;;;19.83;7.03;;;;;;;1.71;89.50;97545.44;5066590;28;20036;-59
2023/03/05 00:11:40;;;;;;;14.43;6.13;;;;;;;1.73;90.11;97546.06;5065580;28;20105;-60
2023/03/05 00:14:06;;;;;;;15.73;6.40;;;;;;;1.73;90.35;97540.72;5069104;28;20380;-59
2023/03/05 00:16:33;;;;;;;18.95;7.05;;;;;;;1.80;89.14;97540.78;5062410;28;20411;-60
2023/03/05 00:19:00;;;;;;;15.52;5.63;;;;;;;1.74;89.83;97536.22;5073909;28;20640;-59
2023/03/05 00:21:32;;;;;;;19.20;7.40;;;;;;;1.71;89.71;97532.09;5070477;28;20097;-58
2023/03/05 00:24:01;;;;;;;15.85;5.82;;;;;;;1.78;89.98;97537.47;5069664;28;20036;-60
2023/03/05 00:26:29;;;;;;;17.42;6.72;;;;;;;1.67;90.37;97534.28;5073249;28;20277;-60
2023/03/05 00:28:56;;;;;;;18.63;7.65;;;;;;;1.63;90.18;97530.38;5068869;28;20071;-59
2023/03/05 00:31:30;;;;;;;17.90;7.20;;;;;;;1.67;89.45;97531.63;5076543;28;20507;-59
2023/03/05 00:33:59;;;;;;;18.23;7.57;;;;;;;1.58;90.19;97530.09;5070968;28;20060;-59
2023/03/05 00:36:26;;;;;;;19.20;9.70;;;;;;;1.55;90.62;97533.16;5070077;28;20577;-59
2023/03/05 00:38:54;;;;;;;18.25;7.22;;;;;;;1.55;90.66;97525.16;5064790;28;20032;-59
2023/03/05 00:41:21;;;;;;;17.33;6.95;;;;;;;1.49;90.98;97526.75;5072706;28;20047;-59
2023/03/05 00:43:48;;;;;;;18.08;6.53;;;;;;;1.50;91.07;97525.72;5051940;28;20041;-59
2023/03/05 00:46:15;;;;;;;18.35;7.22;;;;;;;1.48;90.86;97526.94;5065610;28;20040;-58
2023/03/05 00:48:42;;;;;;;16.25;7.15;;;;;;;1.41;91.65;97526.84;5054307;28;20040;-60
2023/03/05 00:51:08;;;;;;;18.27;7.60;;;;;;;1.42;91.52;97524.00;5067516;28;20616;-60
2023/03/05 00:53:35;;;;;;;17.13;6.88;;;;;;;1.41;91.71;97522.31;5079261;28;20105;-60
2023/03/05 00:56:03;;;;;;;17.17;7.20;;;;;;;1.37;92.19;97512.25;5066796;28;20032;-59
2023/03/05 00:58:30;;;;;;;19.48;7.40;;;;;;;1.37;91.73;97507.72;5069738;28;20368;-60
2023/03/05 01:00:58;;;;;;;22.13;8.02;;;;;;;1.32;92.29;97510.13;5062139;28;20040;-59
2023/03/05 01:03:26;;;;;;;16.85;7.60;;;;;;;1.32;93.18;97509.31;5066056;28;20089;-61
2023/03/05 01:05:54;;;;;;;20.27;8.23;;;;;;;1.25;93.67;97502.06;5066974;28;20029;-60
2023/03/05 01:08:20;;;;;;;15.90;6.55;;;;;;;1.25;93.33;97506.59;5073672;28;20080;-59
2023/03/05 01:10:47;;;;;;;18.30;8.00;;;;;;;1.25;93.91;97502.06;5068845;28;20048;-59
2023/03/05 01:13:14;;;;;;;16.63;7.57;;;;;;;1.26;94.32;97495.69;5073012;28;20503;-61
2023/03/05 01:15:40;;;;;;;17.48;7.10;;;;;;;1.30;94.92;97494.31;5064208;28;20064;-60
2023/03/05 01:18:07;;;;;;;19.20;6.95;;;;;;;1.29;94.16;97499.84;5064396;28;20626;-60
2023/03/05 01:20:34;;;;;;;18.70;7.53;;;;;;;1.27;94.71;97493.88;5063552;28;20052;-60
2023/03/05 01:23:01;;;;;;;17.35;6.97;;;;;;;1.30;94.93;97493.50;5069415;28;20473;-59
2023/03/05 01:25:28;;;;;;;18.50;7.22;;;;;;;1.31;94.59;97484.47;5067740;28;20044;-60
2023/03/05 01:27:55;;;;;;;17.10;6.40;;;;;;;1.33;94.86;97487.78;5072001;28;20047;-60
2023/03/05 01:30:22;;;;;;;20.40;6.55;;;;;;;1.38;95.09;97485.38;5061230;28;20052;-60
2023/03/05 01:32:48;;;;;;;17.73;6.35;;;;;;;1.35;94.41;97485.75;5062143;28;20123;-61
2023/03/05 01:35:19;;;;;;;14.90;5.93;;;;;;;1.41;94.16;97478.84;5066843;28;20037;-60
2023/03/05 01:37:46;;;;;;;16.42;5.93;;;;;;;1.45;93.28;97479.25;5064910;28;20203;-60
2023/03/05 01:40:16;;;;;;;18.38;7.30;;;;;;;1.42;93.57;97475.97;5064315;28;20040;-60
2023/03/05 01:42:47;;;;;;;18.92;6.70;;;;;;;1.40;93.76;97472.66;5066751;28;20522;-59
2023/03/05 01:45:17;;;;;;;16.85;6.15;;;;;;;1.36;93.73;97471.38;5046399;28;20048;-60
2023/03/05 01:47:44;;;;;;;18.30;6.75;;;;;;;1.40;93.38;97472.66;5067852;28;20040;-59
2023/03/05 01:50:15;;;;;;;15.75;6.22;;;;;;;1.36;94.04;97471.38;5063546;28;20074;-60
2023/03/05 01:52:48;;;;;;;19.38;6.68;;;;;;;1.37;94.21;97465.03;5064983;28;20424;-60
2023/03/05 01:55:36;;;;;;;13.85;6.32;;;;;;;1.41;93.94;97468.16;5065781;28;20059;-60
2023/03/05 01:58:07;;;;;;;15.30;6.75;;;;;;;1.34;93.96;97462.75;5086760;28;20040;-60
2023/03/05 02:00:38;;;;;;;17.45;7.97;;;;;;;1.34;94.08;97460.09;5063674;28;20049;-60
2023/03/05 02:03:09;;;;;;;19.10;8.00;;;;;;;1.38;94.30;97460.53;5071465;28;20056;-60
2023/03/05 02:05:39;;;;;;;20.15;7.25;;;;;;;1.36;94.34;97455.38;5065507;28;20047;-60
2023/03/05 02:08:09;;;;;;;16.05;6.43;;;;;;;1.35;94.67;97452.91;5068525;28;20713;-60
2023/03/05 02:10:39;;;;;;;15.05;6.57;;;;;;;1.42;95.06;97448.47;5070132;28;20105;-60
2023/03/05 02:13:08;;;;;;;17.35;7.28;;;;;;;1.41;95.61;97446.81;5064390;28;20098;-60
2023/03/05 02:15:36;;;;;;;17.85;6.90;;;;;;;1.40;96.31;97445.16;5065409;28;21925;-60
2023/03/05 02:18:04;;;;;;;18.65;6.35;;;;;;;1.39;96.20;97431.00;5073355;28;20048;-61
2023/03/05 02:20:42;;;;;;;21.08;7.35;;;;;;;1.36;95.98;97439.38;5066689;28;20045;-61
2023/03/05 02:23:09;;;;;;;17.02;6.10;;;;;;;1.43;95.56;97445.59;5071254;28;20120;-59
2023/03/05 02:25:35;;;;;;;16.90;6.10;;;;;;;1.42;95.71;97438.63;5067618;28;20048;-59
2023/03/05 02:28:07;;;;;;;19.00;7.20;;;;;;;1.42;96.47;97440.44;5070558;28;20040;-60
2023/03/05 02:30:34;;;;;;;19.60;7.05;;;;;;;1.39;96.71;97439.00;5066143;28;20159;-60
2023/03/05 02:33:02;;;;;;;21.38;7.20;;;;;;;1.49;97.17;97435.16;5067274;28;20174;-60
2023/03/05 02:35:28;;;;;;;17.65;6.60;;;;;;;1.43;96.98;97431.41;5071177;28;20043;-60
2023/03/05 02:37:56;;;;;;;20.40;6.60;;;;;;;1.35;97.90;97435.06;5052007;28;20044;-61
2023/03/05 02:40:23;;;;;;;18.23;8.20;;;;;;;1.39;99.42;97428.31;5075005;28;20044;-60
2023/03/05 02:42:51;;;;;;;20.00;6.97;;;;;;;1.42;98.87;97427.09;5071707;28;20040;-61
2023/03/05 02:45:17;;;;;;;23.38;6.82;;;;;;;1.44;100.00;97427.75;5075527;28;20491;-61
2023/03/05 02:47:44;;;;;;;14.65;6.40;;;;;;;1.33;100.00;97428.25;5068878;28;20083;-60
2023/03/05 02:50:11;;;;;;;17.67;7.05;;;;;;;1.22;100.00;97425.06;5070618;28;20028;-61
2023/03/05 02:52:39;;;;;;;18.83;7.00;;;;;;;1.31;100.00;97425.78;5070778;28;20105;-61
2023/03/05 02:55:10;;;;;;;21.60;9.10;;;;;;;1.12;100.00;97417.41;5065858;28;20051;-61
2023/03/05 02:57:38;;;;;;;16.20;7.15;;;;;;;1.03;100.00;97413.19;5070165;28;20123;-61
2023/03/05 03:00:05;;;;;;;21.35;7.22;;;;;;;1.01;100.00;97399.22;5075367;28;20040;-61
2023/03/05 03:02:33;;;;;;;20.50;7.43;;;;;;;0.97;100.00;97405.97;5051484;28;20063;-59
2023/03/05 03:04:59;;;;;;;21.58;7.20;;;;;;;0.94;100.00;97404.50;5068722;28;20086;-60
2023/03/05 03:07:26;;;;;;;21.48;6.88;;;;;;;0.97;100.00;97404.13;5071198;28;20569;-60
2023/03/05 03:09:52;;;;;;;16.20;6.55;;;;;;;0.89;100.00;97397.06;5066569;28;20032;-59
2023/03/05 03:12:19;;;;;;;19.20;7.65;;;;;;;0.94;100.00;97393.00;5071446;28;20043;-59
2023/03/05 03:14:45;;;;;;;19.83;6.35;;;;;;;0.98;100.00;97402.28;5068923;28;20156;-60
2023/03/05 03:17:14;;;;;;;18.85;7.05;;;;;;;1.07;100.00;97389.66;5069947;28;20556;-60
2023/03/05 03:19:42;;;;;;;19.83;7.70;;;;;;;1.13;100.00;97389.72;5074557;28;20032;-59
2023/03/05 03:22:10;;;;;;;17.00;7.10;;;;;;;1.10;100.00;97387.41;5066525;28;20131;-59
2023/03/05 03:24:38;;;;;;;18.70;7.10;;;;;;;1.14;100.00;97388.69;5074279;28;20310;-59
2023/03/05 03:27:05;;;;;;;15.95;6.40;;;;;;;1.21;100.00;97390.59;5068236;28;20558;-59
2023/03/05 03:29:32;;;;;;;18.65;7.25;;;;;;;1.30;100.00;97381.44;5070344;28;20040;-60
2023/03/05 03:31:58;;;;;;;20.60;7.65;;;;;;;1.29;100.00;97382.47;5069759;28;20056;-59
2023/03/05 03:34:25;;;;;;;19.85;7.43;;;;;;;1.24;100.00;97379.53;5071386;28;20040;-59
2023/03/05 03:36:53;;;;;;;21.23;7.85;;;;;;;1.15;100.00;97376.19;5053660;28;20067;-60
2023/03/05 03:39:20;;;;;;;22.45;8.23;;;;;;;1.23;100.00;97377.91;5077141;28;20519;-59
2023/03/05 03:41:49;;;;;;;20.10;7.43;;;;;;;1.15;100.00;97370.84;5068375;28;20047;-59
2023/03/05 03:44:17;;;;;;;18.67;7.30;;;;;;;1.10;100.00;97368.75;5068264;28;20089;-59
2023/03/05 03:46:45;;;;;;;19.23;6.38;;;;;;;1.12;100.00;97364.06;5071731;28;20044;-60
2023/03/05 03:49:22;;;;;;;26.50;7.50;;;;;;;1.20;100.00;97365.75;5073945;28;20448;-60
2023/03/05 03:51:50;;;;;;;18.17;6.45;;;;;;;1.20;99.60;97360.44;5067100;28;20040;-58
2023/03/05 03:54:17;;;;;;;19.55;7.10;;;;;;;1.26;98.82;97359.66;5072286;28;20036;-59
2023/03/05 03:56:44;;;;;;;17.08;6.47;;;;;;;1.26;99.93;97362.31;5074837;28;20107;-60
2023/03/05 03:59:11;;;;;;;17.30;7.47;;;;;;;1.24;99.70;97358.19;5077872;28;20044;-60
2023/03/05 04:01:38;;;;;;;19.92;7.15;;;;;;;1.22;98.98;97353.03;5079163;28;20040;-59
2023/03/05 04:04:06;;;;;;;19.13;7.45;;;;;;;1.24;98.91;97358.19;5072408;28;20602;-59
2023/03/05 04:06:33;;;;;;;18.27;8.02;;;;;;;1.23;99.35;97361.88;5075213;28;20097;-59
2023/03/05 04:08:59;;;;;;;18.50;7.22;;;;;;;1.24;98.23;97352.88;5076370;28;20468;-59
2023/03/05 04:11:26;;;;;;;18.17;7.47;;;;;;;1.33;98.75;97351.72;5076196;28;20036;-59
2023/03/05 04:13:52;;;;;;;18.02;7.78;;;;;;;1.37;98.91;97355.63;5069183;28;20101;-59
2023/03/05 04:16:19;;;;;;;18.15;7.43;;;;;;;1.22;98.92;97352.25;5067909;28;20051;-60
2023/03/05 04:18:46;;;;;;;20.73;7.63;;;;;;;1.27;98.25;97350.66;5068340;28;19920;-60
2023/03/05 04:21:13;;;;;;;21.05;7.88;;;;;;;1.16;98.45;97346.66;5073462;28;20051;-59
2023/03/05 04:23:39;;;;;;;17.98;6.72;;;;;;;1.17;99.08;97348.31;5074748;28;20721;-59
2023/03/05 04:26:06;;;;;;;15.48;7.20;;;;;;;1.22;98.57;97346.91;5067282;28;20579;-60
2023/03/05 04:28:34;;;;;;;18.05;6.97;;;;;;;1.29;98.57;97345.13;5079770;28;20466;-60
2023/03/05 04:31:01;;;;;;;17.50;6.65;;;;;;;1.18;98.12;97349.13;5081085;28;20032;-60
2023/03/05 04:33:28;;;;;;;15.82;6.15;;;;;;;1.18;98.77;97341.13;5077912;28;20101;-58
2023/03/05 04:35:54;;;;;;;18.00;7.50;;;;;;;1.22;98.35;97337.03;5066183;28;20119;-60
2023/03/05 04:38:21;;;;;;;18.45;7.18;;;;;;;1.31;99.19;97343.09;5072406;28;20076;-60
2023/03/05 04:40:48;;;;;;;19.33;7.05;;;;;;;1.35;97.69;97335.50;5077626;28;20118;-60
2023/03/05 04:43:14;;;;;;;20.83;7.78;;;;;;;1.39;97.94;97337.59;5079020;28;20070;-59
2023/03/05 04:45:42;;;;;;;21.30;7.88;;;;;;;1.42;98.10;97339.88;5066799;28;20036;-60
2023/03/05 04:48:10;;;;;;;21.13;8.32;;;;;;;1.36;97.45;97337.97;5071939;28;20044;-60
2023/03/05 04:50:37;;;;;;;20.73;7.30;;;;;;;1.37;97.79;97341.50;5075473;28;20101;-60
2023/03/05 04:53:04;;;;;;;15.75;6.40;;;;;;;1.30;97.06;97339.56;5072284;28;20129;-59
2023/03/05 04:55:30;;;;;;;21.80;8.65;;;;;;;1.26;96.60;97338.31;5073368;28;20075;-60
2023/03/05 04:57:57;;;;;;;16.95;6.88;;;;;;;1.23;97.61;97332.53;5070867;28;20040;-59
2023/03/05 05:00:24;;;;;;;21.42;8.10;;;;;;;1.24;97.18;97337.69;5072816;28;20531;-59
2023/03/05 05:02:51;;;;;;;20.45;8.10;;;;;;;1.25;96.63;97333.19;5073051;28;20108;-59
2023/03/05 05:05:21;;;;;;;21.85;7.00;;;;;;;1.31;96.81;97329.75;5073982;28;20058;-60
2023/03/05 05:07:47;;;;;;;19.17;7.53;;;;;;;1.40;97.23;97327.78;5073727;28;20090;-60
2023/03/05 05:10:15;;;;;;;17.40;7.57;;;;;;;1.29;96.09;97329.13;5072505;28;20044;-58
2023/03/05 05:12:41;;;;;;;19.10;7.38;;;;;;;1.27;97.11;97323.13;5068606;28;20062;-60
2023/03/05 05:15:10;;;;;;;15.48;7.43;;;;;;;1.25;97.06;97330.53;5073103;28;20066;-60
2023/03/05 05:17:37;;;;;;;18.33;8.15;;;;;;;1.26;96.95;97318.84;5069798;28;20044;-60
2023/03/05 05:20:05;;;;;;;17.05;7.05;;;;;;;1.28;97.61;97322.13;5070953;28;20690;-60
2023/03/05 05:22:32;;;;;;;24.95;8.13;;;;;;;1.35;97.46;97323.00;5070781;28;20040;-59
2023/03/05 05:24:59;;;;;;;21.05;7.95;;;;;;;1.37;96.07;97322.81;5066884;28;20173;-60
2023/03/05 05:27:26;;;;;;;15.57;7.45;;;;;;;1.19;96.71;97326.78;5071157;28;20865;-60
2023/03/05 05:29:52;;;;;;;21.58;8.70;;;;;;;1.27;97.73;97320.47;5071550;28;20075;-59
2023/03/05 05:32:21;;;;;;;22.42;7.97;;;;;;;1.34;97.36;97323.19;5082168;28;20039;-59
2023/03/05 05:34:48;;;;;;;19.23;7.65;;;;;;;1.19;97.04;97321.44;5073677;28;20068;-60
2023/03/05 05:37:14;;;;;;;19.88;8.05;;;;;;;1.16;97.52;97327.16;5071830;28;20695;-59
2023/03/05 05:39:41;;;;;;;26.80;9.70;;;;;;;1.27;98.63;97323.13;5082782;28;20036;-59
2023/03/05 05:42:07;;;;;;;20.45;8.48;;;;;;;1.32;97.60;97323.38;5067944;28;20166;-59
2023/03/05 05:44:34;;;;;;;17.23;7.70;;;;;;;1.29;96.69;97329.94;5072736;28;20126;-59
2023/03/05 05:47:00;;;;;;;17.95;8.00;;;;;;;1.24;96.05;97321.69;5077832;28;20646;-60
2023/03/05 05:49:27;;;;;;;20.48;7.82;;;;;;;1.29;96.81;97323.78;5082088;28;20044;-59
2023/03/05 05:51:54;;;;;;;17.50;8.00;;;;;;;1.23;96.42;97320.03;5072646;28;20036;-59
2023/03/05 05:54:21;;;;;;;18.35;7.53;;;;;;;1.27;96.60;97320.47;5078025;28;20105;-60
2023/03/05 05:56:47;;;;;;;18.38;7.63;;;;;;;1.27;97.41;97318.63;5076942;28;20044;-60
2023/03/05 05:59:14;;;;;;;18.92;8.02;;;;;;;1.35;96.52;97319.50;5080553;28;20040;-60
2023/03/05 06:01:40;;;;;;;19.50;8.25;;;;;;;1.39;96.34;97326.09;5075438;28;20411;-60
2023/03/05 06:04:07;;;;;;;20.67;8.75;;;;;;;1.41;94.96;97321.41;5077354;28;20599;-59
2023/03/05 06:06:33;;;;;;;20.27;8.23;;;;;;;1.36;96.56;97318.50;5075479;28;20036;-59
2023/03/05 06:09:00;;;;;;;21.40;9.65;;;;;;;1.36;97.02;97321.16;5078924;28;20119;-60
2023/03/05 06:11:27;;;;;;;18.73;8.88;;;;;;;1.20;96.14;97324.91;5075568;28;20531;-59
2023/03/05 06:13:54;;;;;;;22.00;8.73;;;;;;;1.30;96.87;97314.75;5074650;28;20071;-59
2023/03/05 06:16:23;;;;;;;19.88;8.13;;;;;;;1.35;95.62;97322.16;5069508;28;20044;-60
2023/03/05 06:18:52;;;;;;;22.10;9.65;;;;;;;1.33;96.97;97316.22;5074201;28;20046;-59
2023/03/05 06:21:21;;;;;;;19.73;8.30;;;;;;;1.39;96.46;97323.44;5078039;28;20043;-59
2023/03/05 06:23:48;;;;;;;19.70;8.75;;;;;;;1.32;97.39;97315.38;5076335;28;20514;-58
2023/03/05 06:26:17;;;;;;;19.83;8.07;;;;;;;1.14;96.28;97316.69;5071411;28;20041;-60
2023/03/05 06:28:44;;;;;;;22.80;8.98;;;;;;;1.13;97.65;97316.88;5074759;28;20446;-58
2023/03/05 06:31:24;;;;;;;26.00;8.77;;;;;;;1.21;96.45;97322.06;5078959;28;20124;-57
2023/03/05 06:33:53;;;;;;;20.85;7.60;;;;;;;1.28;96.96;97316.78;5070881;28;20071;-57
2023/03/05 06:36:21;;;;;;;19.95;7.97;;;;;;;1.33;98.12;97316.22;5069780;28;20047;-59
2023/03/05 06:38:48;;;;;;;21.15;8.60;;;;;;;1.36;96.83;97313.16;5079978;28;20055;-58
2023/03/05 06:41:21;;;;;;;18.58;8.65;;;;;;;1.33;96.46;97310.88;5066694;28;20410;-57
2023/03/05 06:43:48;;;;;;;20.27;8.95;;;;;;;1.25;96.85;97312.66;5076462;28;20115;-57
2023/03/05 06:46:16;;;;;;;19.38;8.45;;;;;;;1.34;96.34;97296.50;5073003;28;20032;-58
2023/03/05 06:48:43;;;;;;;19.90;8.90;;;;;;;1.44;96.50;97297.00;5070128;28;20044;-58
2023/03/05 06:51:34;;;;;;;21.25;8.98;;;;;;;1.58;96.28;97305.09;5071000;28;20062;-58
2023/03/05 06:54:06;;;;;;;20.85;8.30;;;;;;;1.49;95.98;97301.75;5067854;28;20552;-56
2023/03/05 06:56:37;;;;;;;23.10;8.45;;;;;;;1.56;95.37;97298.09;5063538;28;20516;-56
2023/03/05 06:59:04;;;;;;;18.70;8.50;;;;;;;1.45;96.06;97297.81;5072701;28;20036;-59
2023/03/05 07:01:31;;;;;;;18.00;8.38;;;;;;;1.42;95.64;97299.88;5063250;28;20117;-58
2023/03/05 07:03:59;;;;;;;23.95;9.68;;;;;;;1.52;96.07;97291.50;5069392;28;20121;-57
2023/03/05 07:06:28;;;;;;;18.63;9.07;;;;;;;1.60;95.78;97298.53;5067878;28;20037;-58
2023/03/05 07:08:56;;;;;;;24.20;8.02;;;;;;;1.55;95.01;97288.44;5075766;28;20035;-57
2023/03/05 07:11:24;;;;;;;17.58;7.45;;;;;;;1.65;94.60;97298.78;5070886;28;20098;-57
2023/03/05 07:13:50;;;;;;;22.27;8.90;;;;;;;1.71;95.28;97291.00;5072510;28;20040;-58
2023/03/05 07:16:25;;;;;;;19.17;8.57;;;;;;;1.82;94.75;97287.78;5076137;28;20093;-57
2023/03/05 07:18:52;;;;;;;18.45;8.35;;;;;;;1.90;94.16;97292.13;5082195;28;19963;-56
2023/03/05 07:21:26;;;;;;;21.73;9.15;;;;;;;1.77;96.62;97282.22;5071652;28;20113;-57
2023/03/05 07:23:54;;;;;;;24.38;8.63;;;;;;;1.82;94.57;97285.09;5071521;28;20898;-57
2023/03/05 07:26:21;;;;;;;20.65;8.65;;;;;;;1.84;93.54;97291.06;5076672;28;20048;-57
2023/03/05 07:28:48;;;;;;;19.50;8.50;;;;;;;1.87;93.49;97290.66;5083073;28;20044;-57
2023/03/05 07:31:20;;;;;;;17.33;8.13;;;;;;;1.81;94.89;97286.94;5073416;28;20050;-57
2023/03/05 07:33:48;;;;;;;19.10;8.48;;;;;;;1.99;93.85;97284.78;5072108;28;20058;-58
2023/03/05 07:36:16;;;;;;;18.58;7.65;;;;;;;2.06;93.10;97294.44;5075344;28;20568;-58
2023/03/05 07:38:42;;;;;;;22.97;8.73;;;;;;;2.10;92.92;97291.38;5079314;28;20048;-57
2023/03/05 07:41:18;;;;;;;23.75;8.65;;;;;;;2.13;92.00;97283.00;5078351;28;20433;-57
2023/03/05 07:43:47;;;;;;;20.70;8.63;;;;;;;2.22;92.36;97287.13;5076303;28;20040;-58
2023/03/05 07:46:16;;;;;;;21.67;9.00;;;;;;;2.21;91.35;97280.94;5076039;28;20044;-58
2023/03/05 07:48:42;;;;;;;18.58;8.57;;;;;;;2.24;92.15;97284.25;5077108;28;20044;-58
2023/03/05 07:51:16;;;;;;;17.75;8.52;;;;;;;2.25;90.77;97288.56;5079273;28;20119;-58
2023/03/05 07:53:43;;;;;;;19.77;7.57;;;;;;;2.17;90.66;97286.88;5074645;28;20090;-57
2023/03/05 07:56:10;;;;;;;19.55;8.90;;;;;;;2.17;92.17;97285.03;5073194;28;21861;-58
2023/03/05 07:58:37;;;;;;;22.05;9.50;;;;;;;2.17;92.04;97278.88;5074957;28;20051;-57
2023/03/05 08:01:11;;;;;;;22.15;9.27;;;;;;;2.14;91.73;97282.75;5073301;28;20135;-58
2023/03/05 08:03:40;;;;;;;17.67;8.15;;;;;;;2.03;91.32;97278.81;5082091;28;20063;-58
2023/03/05 08:06:07;;;;;;;21.52;8.52;;;;;;;2.12;91.13;97284.00;5079506;28;20036;-58
2023/03/05 08:08:35;;;;;;;14.68;7.35;;;;;;;2.26;90.80;97279.53;5084222;28;20575;-58
2023/03/05 08:11:06;;;;;;;17.25;8.15;;;;;;;2.36;90.37;97281.81;5082144;28;20135;-58
2023/03/05 08:13:33;;;;;;;21.38;7.82;;;;;;;2.46;89.74;97279.56;5080523;28;20048;-58
2023/03/05 08:16:06;;;;;;;17.85;8.55;;;;;;;2.42;90.26;97275.66;5082206;28;20102;-58
2023/03/05 08:18:33;;;;;;;18.23;8.30;;;;;;;2.49;89.77;97273.84;5076189;28;20068;-56
2023/03/05 08:21:00;;;;;;;18.90;6.97;;;;;;;2.61;87.92;97274.06;5079823;28;20059;-57
2023/03/05 08:23:27;;;;;;;20.35;8.70;;;;;;;2.38;88.77;97272.56;5076442;28;20514;-57
2023/03/05 08:25:54;;;;;;;18.95;8.30;;;;;;;2.40;88.95;97273.19;5071425;28;20072;-58
2023/03/05 08:28:21;;;;;;;24.00;9.68;;;;;;;2.53;88.16;97277.75;5072882;28;20679;-57
2023/03/05 08:30:48;;;;;;;21.08;10.82;;;;;;;2.54;88.03;97267.88;5081498;28;20063;-57
2023/03/05 08:33:18;;;;;;;24.83;8.68;;;;;;;2.57;87.71;97268.28;5078343;28;20761;-58
2023/03/05 08:35:44;;;;;;;17.70;8.52;;;;;;;2.78;87.51;97271.81;5081036;28;20041;-58
2023/03/05 08:38:11;;;;;;;22.70;8.10;;;;;;;2.83;86.41;97268.53;5080941;28;20048;-56
2023/03/05 08:40:37;;;;;;;20.33;10.23;;;;;;;2.75;87.72;97274.06;5074351;28;20119;-58
2023/03/05 08:43:06;;;;;;;22.63;11.32;;;;;;;2.71;86.48;97266.47;5082779;28;20047;-57
2023/03/05 08:45:32;;;;;;;19.52;9.90;;;;;;;2.75;86.60;97266.03;5075546;28;20074;-58
2023/03/05 08:47:59;;;;;;;19.10;8.85;;;;;;;2.63;86.60;97261.31;5082621;28;20040;-58
2023/03/05 08:50:25;;;;;;;20.13;8.32;;;;;;;2.79;86.24;97259.25;5082008;28;20075;-57
2023/03/05 08:52:52;;;;;;;22.02;8.38;;;;;;;2.92;85.83;97263.81;5078191;28;20568;-58
2023/03/05 08:55:18;;;;;;;22.17;11.30;;;;;;;2.79;85.65;97259.25;5081320;28;20535;-58
2023/03/05 08:57:45;;;;;;;24.27;9.30;;;;;;;2.78;86.50;97269.16;5076281;28;20143;-57
2023/03/05 09:00:12;;;;;;;18.48;8.77;;;;;;;2.56;86.27;97255.13;5072114;28;20051;-57
2023/03/05 09:02:39;;;;;;;23.35;10.25;;;;;;;2.63;85.93;97249.78;5072972;28;20048;-58
2023/03/05 09:05:06;;;;;;;20.92;10.45;;;;;;;2.87;85.70;97261.75;5072657;28;20047;-58
2023/03/05 09:07:33;;;;;;;23.85;10.13;;;;;;;2.91;83.61;97257.63;5079376;28;20055;-58
2023/03/05 09:09:59;;;;;;;21.17;8.52;;;;;;;2.99;84.44;97249.41;5082463;28;20153;-57
2023/03/05 09:12:26;;;;;;;23.92;9.98;;;;;;;2.99;83.57;97253.94;5072692;28;20081;-57
2023/03/05 09:14:56;;;;;;;17.83;8.60;;;;;;;3.14;83.74;97251.06;5077229;28;20044;-59
2023/03/05 09:17:23;;;;;;;20.63;8.95;;;;;;;3.31;82.34;97247.94;5071850;28;21504;-57
2023/03/05 09:19:49;;;;;;;17.80;8.18;;;;;;;3.04;83.18;97255.97;5072952;28;20068;-56
2023/03/05 09:22:16;;;;;;;17.92;8.98;;;;;;;2.89;83.96;97248.16;5070089;28;20072;-57
2023/03/05 09:24:42;;;;;;;21.60;8.93;;;;;;;2.97;83.42;97250.63;5069675;28;20040;-57
2023/03/05 09:27:09;;;;;;;22.33;9.85;;;;;;;3.07;82.59;97245.72;5072639;28;20043;-56
2023/03/05 09:29:36;;;;;;;16.88;7.45;;;;;;;3.17;82.28;97244.47;5073570;28;20644;-57
2023/03/05 09:32:02;;;;;;;17.13;7.72;;;;;;;3.42;81.47;97239.28;5074858;28;20160;-55
2023/03/05 09:34:29;;;;;;;18.48;7.82;;;;;;;3.42;80.01;97233.91;5080600;28;20120;-55
2023/03/05 09:36:55;;;;;;;22.08;8.48;;;;;;;3.25;81.28;97237.03;5073737;28;20032;-57
2023/03/05 09:39:22;;;;;;;23.55;10.18;;;;;;;3.22;82.73;97229.44;5081330;28;20108;-58
2023/03/05 09:42:01;;;;;;;35.25;14.48;;;;;;;3.14;82.29;97229.66;5072230;28;20591;-56
2023/03/05 09:44:27;;;;;;;25.27;11.77;;;;;;;3.31;81.25;97229.22;5081696;28;20130;-59
2023/03/05 09:47:04;;;;;;;29.13;12.13;;;;;;;3.56;81.50;97226.69;5075788;28;20718;-57
2023/03/05 09:49:56;;;;;;;22.88;9.40;;;;;;;3.42;80.79;97223.22;5071215;28;20054;-59
2023/03/05 09:52:52;;;;;;;19.15;8.48;;;;;;;3.57;80.40;97224.84;5070310;28;20040;-56
2023/03/05 09:55:26;;;;;;;16.55;8.48;;;;;;;3.42;81.50;97217.84;5078692;28;20043;-59
2023/03/05 09:57:58;;;;;;;24.65;9.68;;;;;;;3.38;80.71;97225.50;5076557;28;20046;-58
2023/03/05 10:00:45;;;;;;;19.42;8.93;;;;;;;3.61;81.20;97221.50;5071087;28;20044;-56
2023/03/05 10:03:21;;;;;;;23.05;10.07;;;;;;;3.84;79.12;97214.03;5070116;28;20044;-56
2023/03/05 10:06:05;;;;;;;21.60;8.90;;;;;;;3.77;78.53;97217.53;5078999;28;20119;-55
2023/03/05 10:08:45;;;;;;;19.83;9.18;;;;;;;3.58;79.36;97218.44;5069632;28;20044;-59
2023/03/05 10:11:38;;;;;;;18.52;8.82;;;;;;;3.53;79.49;97211.03;5083646;28;20044;-60
2023/03/05 10:14:12;;;;;;;20.55;9.52;;;;;;;3.63;78.33;97210.59;5084482;28;20604;-57
2023/03/05 10:16:51;;;;;;;21.80;9.63;;;;;;;3.71;77.89;97205.00;5076019;28;20067;-56
2023/03/05 10:19:35;;;;;;;21.58;10.20;;;;;;;3.83;77.78;97201.69;5081553;28;20060;-55
2023/03/05 10:22:18;;;;;;;21.38;10.48;;;;;;;3.67;77.97;97216.34;5072641;28;20044;-59
2023/03/05 10:25:19;;;;;;;21.02;11.13;;;;;;;3.61;78.21;97210.00;5075512;28;20044;-53
2023/03/05 10:27:55;;;;;;;23.23;10.02;;;;;;;3.30;79.21;97209.66;5074574;28;20040;-54
2023/03/05 10:30:37;;;;;;;23.13;10.13;;;;;;;3.16;81.29;97206.16;5084177;28;20396;-54
2023/03/05 10:33:13;;;;;;;19.55;8.77;;;;;;;3.00;81.28;97204.75;5082914;28;20093;-55
2023/03/05 10:35:43;;;;;;;19.33;10.43;;;;;;;2.90;82.08;97201.66;5075167;28;20602;-52
2023/03/05 10:38:22;;;;;;;20.65;10.05;;;;;;;2.96;81.80;97207.03;5066372;28;20048;-57
2023/03/05 10:40:53;;;;;;;21.67;9.85;;;;;;;3.16;81.60;97192.78;5083910;28;20179;-60
2023/03/05 10:43:29;;;;;;;24.52;10.25;;;;;;;3.07;82.39;97196.72;5075999;28;21927;-55
2023/03/05 10:45:57;;;;;;;24.02;10.50;;;;;;;3.05;82.36;97191.56;5075105;28;20071;-55
2023/03/05 10:48:30;;;;;;;26.13;13.35;;;;;;;2.89;83.92;97184.81;5073597;28;20043;-53
2023/03/05 10:51:01;;;;;;;27.35;11.90;;;;;;;3.13;83.10;97190.53;5073873;28;20036;-58
2023/03/05 10:53:49;;;;;;;26.60;12.18;;;;;;;3.11;84.31;97188.09;5072315;28;20055;-56
2023/03/05 10:56:20;;;;;;;25.60;11.05;;;;;;;2.94;84.12;97185.00;5077877;28;20040;-55
2023/03/05 10:58:47;;;;;;;28.88;12.43;;;;;;;2.89;84.67;97173.28;5073924;28;20091;-53
2023/03/05 11:01:14;;;;;;;23.55;11.30;;;;;;;3.04;85.26;97178.41;5077630;28;20063;-58
2023/03/05 11:04:02;;;;;;;28.80;11.65;;;;;;;3.27;84.93;97172.59;5071388;28;20043;-57
2023/03/05 11:06:44;;;;;;;39.95;18.63;;;;;;;3.00;85.06;97172.66;5077044;28;20032;-55
2023/03/05 11:09:31;;;;;;;19.65;10.13;;;;;;;3.03;85.79;97163.41;5079058;28;20052;-57
2023/03/05 11:12:00;;;;;;;26.35;11.65;;;;;;;2.83;85.23;97162.38;5070743;28;20118;-56
2023/03/05 11:14:32;;;;;;;26.90;12.38;;;;;;;2.73;86.49;97159.31;5073032;28;20032;-56
2023/03/05 11:17:01;;;;;;;25.25;11.48;;;;;;;2.89;86.57;97162.59;5066984;28;20040;-57
2023/03/05 11:19:33;;;;;;;23.98;12.45;;;;;;;3.04;85.78;97159.69;5074287;28;20046;-54
2023/03/05 11:22:20;;;;;;;23.98;12.85;;;;;;;3.01;86.34;97158.25;5072803;28;20041;-55
2023/03/05 11:25:13;;;;;;;30.75;13.32;;;;;;;2.79;86.33;97149.63;5072824;28;20163;-57
2023/03/05 11:27:49;;;;;;;22.75;10.95;;;;;;;2.71;85.01;97148.84;5068327;28;20045;-56
2023/03/05 11:30:36;;;;;;;29.10;14.15;;;;;;;2.60;86.87;97149.44;5073981;28;20438;-57
2023/03/05 11:33:14;;;;;;;68.75;29.02;;;;;;;2.54;86.29;97148.41;5075768;28;20044;-57
2023/03/05 11:35:42;;;;;;;29.75;13.55;;;;;;;2.53;85.41;97152.13;5078170;28;20097;-58
2023/03/05 11:38:26;;;;;;;49.63;21.63;;;;;;;2.76;85.07;97147.41;5074821;28;20040;-55
2023/03/05 11:40:55;;;;;;;23.00;10.82;;;;;;;2.80;85.47;97141.41;5072997;28;20048;-55
2023/03/05 11:43:24;;;;;;;29.63;13.65;;;;;;;2.93;82.20;97135.22;5072648;28;20113;-59